Hachinohe Air Base, Japan

3:03 AM JST on February 01, 2015 (GMT +0900)
Hachinohe Aero | Change Station
CLOSE
Current Station
Airport
Location: Hachinohe AB,
Elevation: 161 ft
Nearby Weather Stations

Elev 161 ft 40.55 °N, 141.47 °E | Updated 49 minutes ago

Light Snow Showers
Light Showers Snow
30 °F
Feels Like 23 °F
N
7
Wind Variable Wind from WNW

Today
High -- | Low -- °F
--% Chance of Precip.
Yesterday
High -- | Low -- °F
Precip. -- in
6:44 AM 4:51 PM
Waxing Gibbous, 91% visible
Pressure 29.86 in
Visibility 3.1 miles
Clouds Few 600 ft
Mostly Cloudy 1500 ft
Mostly Cloudy 3000 ft
Windchill 23 °F
Dew Point 30 °F
Humidity 100%
Rainfall 0.00 in
Snow Depth Not available.
UV 0 out of 12
Pollen Not available.
Air Quality Not available.
Flu Activity Not available.
SPECI RJSH 311714Z 30006KT 260V340 5000 -SHSN FEW006 BKN015 BKN030 M01/M01 Q1011 RMK 1ST006 5CU015 6CU030 A2987

More Conditions Fewer Conditions

Pressure 29.86 in
Visibility 3.1 miles
Clouds Few 600 ft
Mostly Cloudy 1500 ft
Mostly Cloudy 3000 ft
Windchill 23 °F
Dew Point 30 °F
Humidity 100%
Rainfall 0.00 in
Snow Depth Not available.
UV 0 out of 12
Pollen Not available.
Air Quality Not available.
Flu Activity Not available.
SPECI RJSH 311714Z 30006KT 260V340 5000 -SHSN FEW006 BKN015 BKN030 M01/M01 Q1011 RMK 1ST006 5CU015 6CU030 A2987

More Conditions Fewer Conditions

10-Day Weather Forecast

Almanac

Astronomy

Feb. 01, 2015 Rise Set
Actual Time
Civil Twilight
Nautical Twilight
Astronomical Twilight
Moon
Length of Visible Light
Length of Day
Tomorrow will be .
, % of the Moon is Illuminated

Today's Extremes

Country Highs Country Lows

Community

WunderPhotos

Upload Photos

1,792,142 photos uploaded!

WunderBlogs® & News

Nearby

Air Quality

  Air Quality AQ Index Pollutant
Not available.

Snow Depth

Station Depth Elevation

Earthquake Activity

City Distance Mag. Time & Date
Minimum magnitude displayed is 2.5.

Coastal Water Temperatures

Place Temperature

Nearby Weather Stations